sensor_id;sensor_type;location;lat;lon;timestamp;pressure;altitude;pressure_sealevel;temperature;humidity
77454;BME280;66538;53.150;18.160;2023-05-24T00:01:54;100913.98;;;17.87;60.58
77454;BME280;66538;53.150;18.160;2023-05-24T00:04:22;100913.11;;;17.85;60.65
77454;BME280;66538;53.150;18.160;2023-05-24T00:06:50;100912.42;;;17.84;60.47
77454;BME280;66538;53.150;18.160;2023-05-24T00:09:17;100914.09;;;17.81;60.46
77454;BME280;66538;53.150;18.160;2023-05-24T00:11:43;100914.09;;;17.79;60.43
77454;BME280;66538;53.150;18.160;2023-05-24T00:14:10;100910.94;;;17.75;60.31
77454;BME280;66538;53.150;18.160;2023-05-24T00:16:36;100912.73;;;17.72;60.35
77454;BME280;66538;53.150;18.160;2023-05-24T00:19:03;100907.73;;;17.69;60.27
77454;BME280;66538;53.150;18.160;2023-05-24T00:21:30;100905.08;;;17.66;60.39
77454;BME280;66538;53.150;18.160;2023-05-24T00:23:57;100912.67;;;17.63;60.24
77454;BME280;66538;53.150;18.160;2023-05-24T00:26:24;100911.52;;;17.58;60.53
77454;BME280;66538;53.150;18.160;2023-05-24T00:28:54;100913.27;;;17.52;60.86
77454;BME280;66538;53.150;18.160;2023-05-24T00:31:21;100919.20;;;17.47;60.85
77454;BME280;66538;53.150;18.160;2023-05-24T00:33:47;100914.27;;;17.41;61.01
77454;BME280;66538;53.150;18.160;2023-05-24T00:36:14;100917.01;;;17.35;61.38
77454;BME280;66538;53.150;18.160;2023-05-24T00:38:41;100919.54;;;17.28;61.37
77454;BME280;66538;53.150;18.160;2023-05-24T00:41:07;100919.83;;;17.22;61.34
77454;BME280;66538;53.150;18.160;2023-05-24T00:43:34;100920.42;;;17.18;61.49
77454;BME280;66538;53.150;18.160;2023-05-24T00:46:29;100919.23;;;17.11;61.85
77454;BME280;66538;53.150;18.160;2023-05-24T00:48:57;100923.96;;;17.03;62.00
77454;BME280;66538;53.150;18.160;2023-05-24T00:51:25;100922.02;;;16.98;62.20
77454;BME280;66538;53.150;18.160;2023-05-24T00:53:53;100926.23;;;16.91;62.24
77454;BME280;66538;53.150;18.160;2023-05-24T00:56:20;100930.58;;;16.85;62.43
77454;BME280;66538;53.150;18.160;2023-05-24T00:58:48;100931.31;;;16.79;62.52
77454;BME280;66538;53.150;18.160;2023-05-24T01:01:17;100931.86;;;16.71;62.72
77454;BME280;66538;53.150;18.160;2023-05-24T01:03:44;100927.99;;;16.64;62.86
77454;BME280;66538;53.150;18.160;2023-05-24T01:06:12;100928.38;;;16.58;63.00
77454;BME280;66538;53.150;18.160;2023-05-24T01:08:51;100928.50;;;16.55;63.12
77454;BME280;66538;53.150;18.160;2023-05-24T01:11:34;100932.90;;;16.51;63.34
77454;BME280;66538;53.150;18.160;2023-05-24T01:14:13;100933.73;;;16.47;63.53
77454;BME280;66538;53.150;18.160;2023-05-24T01:19:42;100944.88;;;16.43;63.86
77454;BME280;66538;53.150;18.160;2023-05-24T01:25:02;100948.05;;;16.40;64.32
77454;BME280;66538;53.150;18.160;2023-05-24T01:27:33;100945.87;;;16.38;64.68
77454;BME280;66538;53.150;18.160;2023-05-24T01:30:03;100946.81;;;16.38;64.75
77454;BME280;66538;53.150;18.160;2023-05-24T01:32:30;100941.68;;;16.36;65.09
77454;BME280;66538;53.150;18.160;2023-05-24T01:34:57;100943.88;;;16.36;65.49
77454;BME280;66538;53.150;18.160;2023-05-24T01:37:23;100948.73;;;16.35;65.69
77454;BME280;66538;53.150;18.160;2023-05-24T01:39:50;100951.76;;;16.35;65.92
77454;BME280;66538;53.150;18.160;2023-05-24T01:42:42;100952.14;;;16.32;66.29
77454;BME280;66538;53.150;18.160;2023-05-24T01:45:19;100953.77;;;16.29;66.74
77454;BME280;66538;53.150;18.160;2023-05-24T01:50:24;100950.54;;;16.26;67.18
77454;BME280;66538;53.150;18.160;2023-05-24T01:52:53;100946.77;;;16.25;67.46
77454;BME280;66538;53.150;18.160;2023-05-24T01:55:20;100948.80;;;16.22;67.78
77454;BME280;66538;53.150;18.160;2023-05-24T01:57:49;100953.62;;;16.19;68.04
77454;BME280;66538;53.150;18.160;2023-05-24T02:00:17;100955.40;;;16.17;68.36
77454;BME280;66538;53.150;18.160;2023-05-24T02:02:45;100957.48;;;16.14;68.09
77454;BME280;66538;53.150;18.160;2023-05-24T02:05:12;100957.88;;;16.13;68.04
77454;BME280;66538;53.150;18.160;2023-05-24T02:07:39;100965.77;;;16.13;68.27
77454;BME280;66538;53.150;18.160;2023-05-24T02:10:07;100965.77;;;16.10;68.33
77454;BME280;66538;53.150;18.160;2023-05-24T02:12:34;100972.55;;;16.10;68.46
77454;BME280;66538;53.150;18.160;2023-05-24T02:15:01;100972.97;;;16.08;68.59
77454;BME280;66538;53.150;18.160;2023-05-24T02:17:28;100978.48;;;16.07;68.77
77454;BME280;66538;53.150;18.160;2023-05-24T02:19:58;100978.35;;;16.04;68.73
77454;BME280;66538;53.150;18.160;2023-05-24T02:22:26;100979.81;;;16.01;68.95
77454;BME280;66538;53.150;18.160;2023-05-24T02:24:53;100981.75;;;15.97;68.79
77454;BME280;66538;53.150;18.160;2023-05-24T02:27:20;100984.43;;;15.97;68.91
77454;BME280;66538;53.150;18.160;2023-05-24T02:29:47;100976.04;;;15.94;69.09
77454;BME280;66538;53.150;18.160;2023-05-24T02:32:14;100977.25;;;15.91;69.42
77454;BME280;66538;53.150;18.160;2023-05-24T02:34:40;100980.33;;;15.86;69.32
77454;BME280;66538;53.150;18.160;2023-05-24T02:37:08;100978.61;;;15.84;69.45
77454;BME280;66538;53.150;18.160;2023-05-24T02:39:34;100978.59;;;15.82;69.53
77454;BME280;66538;53.150;18.160;2023-05-24T02:42:01;100987.20;;;15.81;69.76
77454;BME280;66538;53.150;18.160;2023-05-24T02:44:30;100982.80;;;15.79;70.17
77454;BME280;66538;53.150;18.160;2023-05-24T02:46:56;100988.13;;;15.77;70.13
77454;BME280;66538;53.150;18.160;2023-05-24T02:49:23;100989.33;;;15.74;70.30
77454;BME280;66538;53.150;18.160;2023-05-24T02:51:49;100989.91;;;15.72;70.36
77454;BME280;66538;53.150;18.160;2023-05-24T02:54:17;100996.57;;;15.70;70.23
77454;BME280;66538;53.150;18.160;2023-05-24T02:56:44;100993.89;;;15.70;70.46
77454;BME280;66538;53.150;18.160;2023-05-24T02:59:10;100996.05;;;15.68;70.55
77454;BME280;66538;53.150;18.160;2023-05-24T03:01:38;100995.70;;;15.65;70.73
77454;BME280;66538;53.150;18.160;2023-05-24T03:04:06;100991.52;;;15.62;71.09
77454;BME280;66538;53.150;18.160;2023-05-24T03:06:33;100997.96;;;15.60;70.83
77454;BME280;66538;53.150;18.160;2023-05-24T03:08:59;100999.29;;;15.59;70.56
77454;BME280;66538;53.150;18.160;2023-05-24T03:11:26;100999.67;;;15.59;70.69
77454;BME280;66538;53.150;18.160;2023-05-24T03:13:53;100995.75;;;15.58;70.66
77454;BME280;66538;53.150;18.160;2023-05-24T03:16:19;100992.95;;;15.59;70.41
77454;BME280;66538;53.150;18.160;2023-05-24T03:18:46;100994.34;;;15.61;70.39
77454;BME280;66538;53.150;18.160;2023-05-24T03:21:18;100998.73;;;15.63;70.31
77454;BME280;66538;53.150;18.160;2023-05-24T03:23:46;101000.75;;;15.64;70.09
77454;BME280;66538;53.150;18.160;2023-05-24T03:26:12;101009.30;;;15.67;69.86
77454;BME280;66538;53.150;18.160;2023-05-24T03:28:39;101011.73;;;15.69;69.87
77454;BME280;66538;53.150;18.160;2023-05-24T03:31:06;101019.85;;;15.72;69.73
77454;BME280;66538;53.150;18.160;2023-05-24T03:33:33;101015.75;;;15.75;69.67
77454;BME280;66538;53.150;18.160;2023-05-24T03:36:00;101026.79;;;15.78;69.69
77454;BME280;66538;53.150;18.160;2023-05-24T03:38:28;101026.88;;;15.79;69.69
77454;BME280;66538;53.150;18.160;2023-05-24T03:40:57;101031.88;;;15.81;69.71
77454;BME280;66538;53.150;18.160;2023-05-24T03:43:23;101033.65;;;15.84;69.83
77454;BME280;66538;53.150;18.160;2023-05-24T03:45:56;101037.35;;;15.85;69.51
77454;BME280;66538;53.150;18.160;2023-05-24T03:48:22;101035.00;;;15.89;69.43
77454;BME280;66538;53.150;18.160;2023-05-24T03:50:50;101032.28;;;15.91;69.61
77454;BME280;66538;53.150;18.160;2023-05-24T03:53:17;101029.13;;;15.94;69.49
77454;BME280;66538;53.150;18.160;2023-05-24T03:55:44;101031.39;;;15.96;69.41
77454;BME280;66538;53.150;18.160;2023-05-24T03:58:11;101027.41;;;15.97;69.71
77454;BME280;66538;53.150;18.160;2023-05-24T04:00:38;101027.02;;;15.99;69.98
77454;BME280;66538;53.150;18.160;2023-05-24T04:03:04;101026.05;;;15.98;69.89
77454;BME280;66538;53.150;18.160;2023-05-24T04:05:32;101025.23;;;15.98;70.08
77454;BME280;66538;53.150;18.160;2023-05-24T04:07:59;101028.20;;;15.97;69.99
77454;BME280;66538;53.150;18.160;2023-05-24T04:10:26;101029.18;;;15.97;70.20
77454;BME280;66538;53.150;18.160;2023-05-24T04:12:52;101028.27;;;15.96;70.30
77454;BME280;66538;53.150;18.160;2023-05-24T04:15:19;101033.42;;;15.96;70.55
77454;BME280;66538;53.150;18.160;2023-05-24T04:17:46;101033.74;;;15.96;70.70
77454;BME280;66538;53.150;18.160;2023-05-24T04:20:15;101041.57;;;15.96;70.56
77454;BME280;66538;53.150;18.160;2023-05-24T04:22:42;101041.84;;;15.97;70.65
77454;BME280;66538;53.150;18.160;2023-05-24T04:25:08;101047.53;;;15.98;70.77
77454;BME280;66538;53.150;18.160;2023-05-24T04:27:35;101050.75;;;15.98;70.51
77454;BME280;66538;53.150;18.160;2023-05-24T04:30:02;101059.24;;;16.01;70.57
77454;BME280;66538;53.150;18.160;2023-05-24T04:32:29;101063.36;;;16.04;70.65
77454;BME280;66538;53.150;18.160;2023-05-24T04:34:55;101064.46;;;16.07;70.43
77454;BME280;66538;53.150;18.160;2023-05-24T04:37:23;101070.02;;;16.09;70.40
77454;BME280;66538;53.150;18.160;2023-05-24T04:39:50;101071.83;;;16.10;70.33
77454;BME280;66538;53.150;18.160;2023-05-24T04:42:17;101075.45;;;16.12;70.23
77454;BME280;66538;53.150;18.160;2023-05-24T04:44:43;101086.84;;;16.20;70.18
77454;BME280;66538;53.150;18.160;2023-05-24T04:47:10;101094.48;;;16.25;70.23
77454;BME280;66538;53.150;18.160;2023-05-24T04:49:38;101099.66;;;16.28;70.15
77454;BME280;66538;53.150;18.160;2023-05-24T04:52:05;101093.02;;;16.28;70.35
77454;BME280;66538;53.150;18.160;2023-05-24T04:54:33;101096.85;;;16.28;70.33
77454;BME280;66538;53.150;18.160;2023-05-24T04:56:59;101095.94;;;16.28;70.46
77454;BME280;66538;53.150;18.160;2023-05-24T04:59:26;101094.80;;;16.27;71.03
77454;BME280;66538;53.150;18.160;2023-05-24T05:01:53;101093.27;;;16.23;71.30
77454;BME280;66538;53.150;18.160;2023-05-24T05:04:19;101094.41;;;16.16;71.60
77454;BME280;66538;53.150;18.160;2023-05-24T05:06:46;101091.45;;;16.08;72.14
77454;BME280;66538;53.150;18.160;2023-05-24T05:09:13;101090.99;;;15.98;72.53
77454;BME280;66538;53.150;18.160;2023-05-24T05:11:41;101091.16;;;15.90;73.06
77454;BME280;66538;53.150;18.160;2023-05-24T05:14:08;101092.34;;;15.83;73.11
77454;BME280;66538;53.150;18.160;2023-05-24T05:16:35;101102.19;;;15.77;73.69
77454;BME280;66538;53.150;18.160;2023-05-24T05:19:02;101115.29;;;15.71;74.23
77454;BME280;66538;53.150;18.160;2023-05-24T05:21:33;101117.31;;;15.66;74.01
77454;BME280;66538;53.150;18.160;2023-05-24T05:24:00;101123.86;;;15.64;74.07
77454;BME280;66538;53.150;18.160;2023-05-24T05:26:27;101126.54;;;15.60;74.14
77454;BME280;66538;53.150;18.160;2023-05-24T05:28:55;101129.40;;;15.59;74.07
77454;BME280;66538;53.150;18.160;2023-05-24T05:31:22;101130.88;;;15.58;74.89
77454;BME280;66538;53.150;18.160;2023-05-24T05:33:49;101135.95;;;15.56;74.76
77454;BME280;66538;53.150;18.160;2023-05-24T05:36:16;101142.59;;;15.53;75.33
77454;BME280;66538;53.150;18.160;2023-05-24T05:38:43;101144.35;;;15.48;75.54
77454;BME280;66538;53.150;18.160;2023-05-24T05:41:12;101151.12;;;15.45;76.31
77454;BME280;66538;53.150;18.160;2023-05-24T05:43:39;101151.39;;;15.40;76.01
77454;BME280;66538;53.150;18.160;2023-05-24T05:46:05;101151.86;;;15.36;76.12
77454;BME280;66538;53.150;18.160;2023-05-24T05:48:32;101153.67;;;15.34;76.32
77454;BME280;66538;53.150;18.160;2023-05-24T05:50:59;101153.54;;;15.32;76.43
77454;BME280;66538;53.150;18.160;2023-05-24T05:53:25;101164.58;;;15.32;76.72
77454;BME280;66538;53.150;18.160;2023-05-24T05:55:52;101167.28;;;15.30;76.71
77454;BME280;66538;53.150;18.160;2023-05-24T05:58:19;101168.85;;;15.31;76.63
77454;BME280;66538;53.150;18.160;2023-05-24T06:00:45;101173.20;;;15.29;76.72
77454;BME280;66538;53.150;18.160;2023-05-24T06:03:12;101175.56;;;15.26;76.69
77454;BME280;66538;53.150;18.160;2023-05-24T06:05:39;101175.83;;;15.24;76.72
77454;BME280;66538;53.150;18.160;2023-05-24T06:08:05;101175.13;;;15.22;76.72
77454;BME280;66538;53.150;18.160;2023-05-24T06:10:32;101183.66;;;15.22;76.89
77454;BME280;66538;53.150;18.160;2023-05-24T06:13:01;101187.65;;;15.21;77.05
77454;BME280;66538;53.150;18.160;2023-05-24T06:15:28;101186.52;;;15.21;76.73
77454;BME280;66538;53.150;18.160;2023-05-24T06:17:55;101195.66;;;15.20;77.22
77454;BME280;66538;53.150;18.160;2023-05-24T06:20:21;101196.30;;;15.16;77.22
77454;BME280;66538;53.150;18.160;2023-05-24T06:22:48;101200.55;;;15.18;77.41
77454;BME280;66538;53.150;18.160;2023-05-24T06:25:16;101204.11;;;15.16;77.82
77454;BME280;66538;53.150;18.160;2023-05-24T06:27:45;101200.48;;;15.13;77.83
77454;BME280;66538;53.150;18.160;2023-05-24T06:30:12;101211.70;;;15.05;78.22
77454;BME280;66538;53.150;18.160;2023-05-24T06:32:39;101223.06;;;15.00;77.93
77454;BME280;66538;53.150;18.160;2023-05-24T06:35:06;101225.29;;;14.96;78.12
77454;BME280;66538;53.150;18.160;2023-05-24T06:37:33;101223.55;;;14.94;78.56
77454;BME280;66538;53.150;18.160;2023-05-24T06:40:00;101230.56;;;14.92;78.42
77454;BME280;66538;53.150;18.160;2023-05-24T06:51:28;101255.09;;;14.96;78.45
77454;BME280;66538;53.150;18.160;2023-05-24T06:53:54;101260.29;;;14.95;78.78
77454;BME280;66538;53.150;18.160;2023-05-24T06:56:21;101262.36;;;14.98;78.72
77454;BME280;66538;53.150;18.160;2023-05-24T06:58:48;101259.40;;;15.03;78.91
77454;BME280;66538;53.150;18.160;2023-05-24T07:01:15;101267.80;;;15.08;78.99
77454;BME280;66538;53.150;18.160;2023-05-24T07:03:42;101268.59;;;15.11;79.28
77454;BME280;66538;53.150;18.160;2023-05-24T07:06:08;101277.23;;;15.12;79.02
77454;BME280;66538;53.150;18.160;2023-05-24T07:08:40;101285.75;;;15.14;78.83
77454;BME280;66538;53.150;18.160;2023-05-24T07:11:08;101288.73;;;15.17;78.90
77454;BME280;66538;53.150;18.160;2023-05-24T07:13:35;101288.70;;;15.20;79.04
77454;BME280;66538;53.150;18.160;2023-05-24T07:16:01;101290.07;;;15.22;78.65
77454;BME280;66538;53.150;18.160;2023-05-24T07:18:29;101293.09;;;15.27;78.59
77454;BME280;66538;53.150;18.160;2023-05-24T07:20:56;101292.64;;;15.33;79.07
77454;BME280;66538;53.150;18.160;2023-05-24T07:23:22;101290.56;;;15.37;78.85
77454;BME280;66538;53.150;18.160;2023-05-24T07:25:49;101288.23;;;15.41;78.54
77454;BME280;66538;53.150;18.160;2023-05-24T07:28:16;101289.38;;;15.47;78.58
77454;BME280;66538;53.150;18.160;2023-05-24T07:30:45;101292.58;;;15.52;78.17
77454;BME280;66538;53.150;18.160;2023-05-24T07:33:11;101296.63;;;15.58;78.26
77454;BME280;66538;53.150;18.160;2023-05-24T07:35:39;101295.32;;;15.69;78.25
77454;BME280;66538;53.150;18.160;2023-05-24T07:38:05;101299.70;;;15.81;77.94
77454;BME280;66538;53.150;18.160;2023-05-24T07:40:32;101305.32;;;15.93;77.88
77454;BME280;66538;53.150;18.160;2023-05-24T07:42:59;101307.48;;;16.00;77.59
77454;BME280;66538;53.150;18.160;2023-05-24T07:45:25;101314.52;;;16.07;77.34
77454;BME280;66538;53.150;18.160;2023-05-24T07:47:52;101319.91;;;16.12;77.11
77454;BME280;66538;53.150;18.160;2023-05-24T07:50:18;101322.24;;;16.17;77.07
77454;BME280;66538;53.150;18.160;2023-05-24T07:52:45;101331.80;;;16.27;76.86
77454;BME280;66538;53.150;18.160;2023-05-24T07:55:12;101334.66;;;16.34;76.64
77454;BME280;66538;53.150;18.160;2023-05-24T07:57:39;101333.33;;;16.43;76.35
77454;BME280;66538;53.150;18.160;2023-05-24T08:00:06;101332.71;;;16.49;76.07
77454;BME280;66538;53.150;18.160;2023-05-24T08:02:43;101339.65;;;16.63;76.08
77454;BME280;66538;53.150;18.160;2023-05-24T08:05:12;101343.81;;;16.76;75.79
77454;BME280;66538;53.150;18.160;2023-05-24T08:07:39;101348.02;;;16.93;75.33
77454;BME280;66538;53.150;18.160;2023-05-24T08:10:08;101350.05;;;17.13;75.04
77454;BME280;66538;53.150;18.160;2023-05-24T08:12:38;101349.41;;;17.31;74.77
77454;BME280;66538;53.150;18.160;2023-05-24T08:15:05;101350.31;;;17.55;74.10
77454;BME280;66538;53.150;18.160;2023-05-24T08:17:32;101351.04;;;17.74;73.19
77454;BME280;66538;53.150;18.160;2023-05-24T08:19:59;101349.22;;;17.90;72.88
77454;BME280;66538;53.150;18.160;2023-05-24T08:22:26;101345.60;;;18.10;72.07
77454;BME280;66538;53.150;18.160;2023-05-24T08:24:53;101344.72;;;18.33;71.77
77454;BME280;66538;53.150;18.160;2023-05-24T08:27:19;101353.00;;;18.55;70.60
77454;BME280;66538;53.150;18.160;2023-05-24T08:29:48;101352.28;;;18.68;70.23
77454;BME280;66538;53.150;18.160;2023-05-24T08:32:14;101356.73;;;18.89;69.58
77454;BME280;66538;53.150;18.160;2023-05-24T08:34:41;101361.89;;;19.06;69.17
77454;BME280;66538;53.150;18.160;2023-05-24T08:37:07;101360.80;;;19.21;68.21
77454;BME280;66538;53.150;18.160;2023-05-24T08:39:35;101364.88;;;19.33;67.71
77454;BME280;66538;53.150;18.160;2023-05-24T08:42:04;101366.31;;;19.45;66.98
77454;BME280;66538;53.150;18.160;2023-05-24T08:44:44;101367.44;;;19.55;66.56
77454;BME280;66538;53.150;18.160;2023-05-24T08:47:13;101368.70;;;19.60;65.23
77454;BME280;66538;53.150;18.160;2023-05-24T08:49:40;101373.82;;;19.58;65.70
77454;BME280;66538;53.150;18.160;2023-05-24T08:52:08;101376.70;;;19.59;65.75
77454;BME280;66538;53.150;18.160;2023-05-24T08:54:37;101373.77;;;19.66;65.57
77454;BME280;66538;53.150;18.160;2023-05-24T08:57:04;101379.27;;;19.73;64.22
77454;BME280;66538;53.150;18.160;2023-05-24T08:59:32;101383.67;;;19.73;64.20
77454;BME280;66538;53.150;18.160;2023-05-24T09:02:00;101379.79;;;19.77;64.13
77454;BME280;66538;53.150;18.160;2023-05-24T09:04:28;101377.45;;;19.87;64.45
77454;BME280;66538;53.150;18.160;2023-05-24T09:06:55;101374.86;;;19.97;64.33
77454;BME280;66538;53.150;18.160;2023-05-24T09:09:26;101380.96;;;20.08;63.75
77454;BME280;66538;53.150;18.160;2023-05-24T09:11:55;101381.73;;;20.08;63.26
77454;BME280;66538;53.150;18.160;2023-05-24T09:14:24;101382.64;;;20.17;63.09
77454;BME280;66538;53.150;18.160;2023-05-24T09:16:51;101388.21;;;20.23;62.12
77454;BME280;66538;53.150;18.160;2023-05-24T09:19:18;101388.73;;;20.24;62.41
77454;BME280;66538;53.150;18.160;2023-05-24T09:21:46;101393.41;;;20.26;62.28
77454;BME280;66538;53.150;18.160;2023-05-24T09:24:15;101395.48;;;20.25;62.37
77454;BME280;66538;53.150;18.160;2023-05-24T09:26:41;101394.86;;;20.34;62.38
77454;BME280;66538;53.150;18.160;2023-05-24T09:29:08;101394.94;;;20.47;61.65
77454;BME280;66538;53.150;18.160;2023-05-24T09:31:37;101390.88;;;20.62;61.71
77454;BME280;66538;53.150;18.160;2023-05-24T09:34:09;101393.05;;;20.74;61.46
77454;BME280;66538;53.150;18.160;2023-05-24T09:36:40;101398.01;;;20.76;61.10
77454;BME280;66538;53.150;18.160;2023-05-24T09:39:09;101405.83;;;20.69;60.96
77454;BME280;66538;53.150;18.160;2023-05-24T09:41:36;101405.94;;;20.48;60.66
77454;BME280;66538;53.150;18.160;2023-05-24T09:44:04;101401.27;;;20.27;61.59
77454;BME280;66538;53.150;18.160;2023-05-24T09:46:35;101407.14;;;20.22;62.17
77454;BME280;66538;53.150;18.160;2023-05-24T09:49:03;101410.16;;;20.21;62.14
77454;BME280;66538;53.150;18.160;2023-05-24T09:51:36;101411.68;;;20.20;61.75
77454;BME280;66538;53.150;18.160;2023-05-24T09:54:04;101416.43;;;20.25;62.06
77454;BME280;66538;53.150;18.160;2023-05-24T09:56:34;101413.52;;;20.27;61.83
77454;BME280;66538;53.150;18.160;2023-05-24T09:59:07;101418.76;;;20.23;61.88
77454;BME280;66538;53.150;18.160;2023-05-24T10:01:34;101418.92;;;20.10;61.73
77454;BME280;66538;53.150;18.160;2023-05-24T10:04:01;101423.73;;;19.92;62.14
77454;BME280;66538;53.150;18.160;2023-05-24T10:06:29;101427.33;;;19.75;62.52
77454;BME280;66538;53.150;18.160;2023-05-24T10:09:01;101434.60;;;19.62;62.64
77454;BME280;66538;53.150;18.160;2023-05-24T10:11:31;101434.79;;;19.47;62.66
77454;BME280;66538;53.150;18.160;2023-05-24T10:13:59;101436.14;;;19.38;62.85
77454;BME280;66538;53.150;18.160;2023-05-24T10:16:26;101434.63;;;19.46;62.77
77454;BME280;66538;53.150;18.160;2023-05-24T10:18:52;101433.73;;;19.68;62.72
77454;BME280;66538;53.150;18.160;2023-05-24T10:21:22;101436.15;;;19.99;62.17
77454;BME280;66538;53.150;18.160;2023-05-24T10:23:51;101433.05;;;20.39;61.68
77454;BME280;66538;53.150;18.160;2023-05-24T10:26:24;101434.81;;;20.86;60.80
77454;BME280;66538;53.150;18.160;2023-05-24T10:28:57;101436.15;;;21.24;59.84
77454;BME280;66538;53.150;18.160;2023-05-24T10:31:30;101444.95;;;21.66;58.89
77454;BME280;66538;53.150;18.160;2023-05-24T10:33:59;101447.52;;;22.02;58.13
77454;BME280;66538;53.150;18.160;2023-05-24T10:36:27;101441.59;;;22.29;56.68
77454;BME280;66538;53.150;18.160;2023-05-24T10:38:55;101435.44;;;22.40;55.93
77454;BME280;66538;53.150;18.160;2023-05-24T10:41:25;101435.89;;;22.47;55.60
77454;BME280;66538;53.150;18.160;2023-05-24T10:43:53;101440.23;;;22.58;55.45
77454;BME280;66538;53.150;18.160;2023-05-24T10:46:20;101439.98;;;22.70;55.30
77454;BME280;66538;53.150;18.160;2023-05-24T10:48:58;101441.01;;;22.89;54.68
77454;BME280;66538;53.150;18.160;2023-05-24T10:51:36;101438.17;;;23.07;53.73
77454;BME280;66538;53.150;18.160;2023-05-24T10:54:14;101440.55;;;23.13;53.43
77454;BME280;66538;53.150;18.160;2023-05-24T10:56:49;101440.09;;;23.13;53.86
77454;BME280;66538;53.150;18.160;2023-05-24T11:01:57;101436.06;;;23.11;53.41
77454;BME280;66538;53.150;18.160;2023-05-24T11:04:24;101440.40;;;23.03;53.00
77454;BME280;66538;53.150;18.160;2023-05-24T11:06:56;101438.27;;;22.96;53.17
77454;BME280;66538;53.150;18.160;2023-05-24T11:09:26;101434.12;;;22.99;52.98
77454;BME280;66538;53.150;18.160;2023-05-24T11:11:55;101432.64;;;23.11;53.21
77454;BME280;66538;53.150;18.160;2023-05-24T11:14:24;101429.84;;;23.25;52.20
77454;BME280;66538;53.150;18.160;2023-05-24T11:16:52;101427.49;;;23.40;51.89
77454;BME280;66538;53.150;18.160;2023-05-24T11:19:21;101426.48;;;23.61;51.29
77454;BME280;66538;53.150;18.160;2023-05-24T11:21:50;101426.92;;;23.78;50.58
77454;BME280;66538;53.150;18.160;2023-05-24T11:24:19;101427.95;;;23.85;49.45
77454;BME280;66538;53.150;18.160;2023-05-24T11:26:48;101424.16;;;23.89;49.72
77454;BME280;66538;53.150;18.160;2023-05-24T11:29:15;101427.48;;;23.97;49.79
77454;BME280;66538;53.150;18.160;2023-05-24T11:31:52;101431.05;;;24.21;50.02
77454;BME280;66538;53.150;18.160;2023-05-24T11:34:20;101433.63;;;24.40;48.87
77454;BME280;66538;53.150;18.160;2023-05-24T11:36:47;101435.73;;;24.43;48.16
77454;BME280;66538;53.150;18.160;2023-05-24T11:39:15;101437.71;;;24.41;48.09
77454;BME280;66538;53.150;18.160;2023-05-24T11:41:42;101439.02;;;24.40;48.44
77454;BME280;66538;53.150;18.160;2023-05-24T11:44:09;101435.28;;;24.39;48.29
77454;BME280;66538;53.150;18.160;2023-05-24T11:46:41;101436.10;;;24.36;48.54
77454;BME280;66538;53.150;18.160;2023-05-24T11:49:14;101434.23;;;24.41;48.46
77454;BME280;66538;53.150;18.160;2023-05-24T11:51:42;101437.70;;;24.45;47.98
77454;BME280;66538;53.150;18.160;2023-05-24T11:54:09;101436.11;;;24.54;47.77
77454;BME280;66538;53.150;18.160;2023-05-24T11:56:37;101441.50;;;24.69;47.22
77454;BME280;66538;53.150;18.160;2023-05-24T11:59:14;101441.61;;;24.96;46.92
77454;BME280;66538;53.150;18.160;2023-05-24T12:01:42;101435.45;;;25.42;46.05
77454;BME280;66538;53.150;18.160;2023-05-24T12:04:10;101434.28;;;25.77;45.34
77454;BME280;66538;53.150;18.160;2023-05-24T12:06:39;101438.75;;;25.82;45.17
77454;BME280;66538;53.150;18.160;2023-05-24T12:09:07;101436.55;;;25.80;45.08
77454;BME280;66538;53.150;18.160;2023-05-24T12:11:43;101431.83;;;25.82;44.98
77454;BME280;66538;53.150;18.160;2023-05-24T12:14:11;101448.38;;;25.91;44.95
77454;BME280;66538;53.150;18.160;2023-05-24T12:16:41;101447.38;;;25.89;44.81
77454;BME280;66538;53.150;18.160;2023-05-24T12:19:12;101442.69;;;25.81;44.90
77454;BME280;66538;53.150;18.160;2023-05-24T12:21:41;101439.66;;;25.73;44.64
77454;BME280;66538;53.150;18.160;2023-05-24T12:24:13;101437.95;;;25.82;44.83
77454;BME280;66538;53.150;18.160;2023-05-24T12:26:41;101441.64;;;25.93;44.55
77454;BME280;66538;53.150;18.160;2023-05-24T12:29:09;101441.54;;;26.06;44.46
77454;BME280;66538;53.150;18.160;2023-05-24T12:31:47;101441.14;;;26.14;43.59
77454;BME280;66538;53.150;18.160;2023-05-24T12:34:16;101442.73;;;26.15;43.67
77454;BME280;66538;53.150;18.160;2023-05-24T12:36:44;101440.15;;;26.16;43.36
77454;BME280;66538;53.150;18.160;2023-05-24T12:39:25;101438.30;;;26.26;43.56
77454;BME280;66538;53.150;18.160;2023-05-24T12:42:02;101436.27;;;26.37;43.39
77454;BME280;66538;53.150;18.160;2023-05-24T12:44:31;101444.29;;;26.59;42.89
77454;BME280;66538;53.150;18.160;2023-05-24T12:47:01;101437.83;;;26.80;42.64
77454;BME280;66538;53.150;18.160;2023-05-24T12:49:28;101434.80;;;26.99;42.29
77454;BME280;66538;53.150;18.160;2023-05-24T12:51:55;101429.69;;;27.05;41.38
77454;BME280;66538;53.150;18.160;2023-05-24T12:54:25;101433.17;;;27.11;41.38
77454;BME280;66538;53.150;18.160;2023-05-24T12:56:53;101432.48;;;27.24;40.95
77454;BME280;66538;53.150;18.160;2023-05-24T12:59:20;101418.73;;;27.47;40.17
77454;BME280;66538;53.150;18.160;2023-05-24T13:01:47;101417.62;;;28.46;38.76
77454;BME280;66538;53.150;18.160;2023-05-24T13:04:18;101413.48;;;29.78;37.71
77454;BME280;66538;53.150;18.160;2023-05-24T13:06:46;101408.46;;;30.85;36.16